Time,TemperatureF,DewpointF,PressureIn,WindDirection,WindDirectionDegrees,WindSpeedMPH,WindSpeedGustMPH,Humidity,HourlyPrecipIn,Conditions,Clouds,dailyrainin,SoftwareType,DateUTC
2013-07-20 00:02:00,62.1,60.0,29.87,NW,317,0.0,0.0,91,0.00,,,0.00,weatherlink.com 1.10,2013-07-20 05:02:00,
2013-07-20 00:17:00,62.1,59.0,29.88,NW,305,0.0,0.0,88,0.00,,,0.00,weatherlink.com 1.10,2013-07-20 05:17:00,
2013-07-20 00:32:00,61.7,59.0,29.87,NW,305,0.0,0.0,89,0.00,,,0.00,weatherlink.com 1.10,2013-07-20 05:32:00,
2013-07-20 00:48:00,61.9,58.0,29.88,SW,215,0.0,1.0,88,0.00,,,0.00,weatherlink.com 1.10,2013-07-20 05:48:00,
2013-07-20 01:03:00,61.5,58.0,29.88,SW,215,0.0,0.0,89,0.00,,,0.00,weatherlink.com 1.10,2013-07-20 06:03:00,
2013-07-20 01:18:00,60.9,58.0,29.89,SW,215,0.0,0.0,89,0.00,,,0.00,weatherlink.com 1.10,2013-07-20 06:18:00,
2013-07-20 01:33:00,60.4,58.0,29.88,SW,217,0.0,0.0,91,0.00,,,0.00,weatherlink.com 1.10,2013-07-20 06:33:00,
2013-07-20 01:48:00,60.5,58.0,29.88,SW,215,0.0,1.0,92,0.00,,,0.00,weatherlink.com 1.10,2013-07-20 06:48:00,
2013-07-20 02:03:00,60.3,58.0,29.87,SW,215,0.0,1.0,92,0.00,,,0.00,weatherlink.com 1.10,2013-07-20 07:03:00,
2013-07-20 02:18:00,60.0,58.0,29.86,SW,215,0.0,0.0,92,0.00,,,0.00,weatherlink.com 1.10,2013-07-20 07:18:00,
2013-07-20 02:33:00,59.7,58.0,29.86,SW,215,0.0,1.0,93,0.00,,,0.00,weatherlink.com 1.10,2013-07-20 07:33:00,
2013-07-20 02:48:00,60.2,58.0,29.86,NNW,343,0.0,0.0,91,0.00,,,0.00,weatherlink.com 1.10,2013-07-20 07:48:00,
2013-07-20 03:03:00,59.3,57.0,29.85,West,269,1.0,1.0,93,0.00,,,0.00,weatherlink.com 1.10,2013-07-20 08:03:00,
2013-07-20 03:18:00,59.3,57.0,29.86,SW,219,1.0,1.0,93,0.00,,,0.00,weatherlink.com 1.10,2013-07-20 08:18:00,
2013-07-20 03:33:00,59.8,58.0,29.85,SSW,213,0.0,2.0,94,0.00,,,0.00,weatherlink.com 1.10,2013-07-20 08:33:00,
2013-07-20 03:48:00,60.5,58.0,29.85,SSW,212,0.0,1.0,92,0.00,,,0.00,weatherlink.com 1.10,2013-07-20 08:48:00,
2013-07-20 04:03:00,60.0,58.0,29.85,SW,231,1.0,2.0,93,0.00,,,0.00,weatherlink.com 1.10,2013-07-20 09:03:00,
2013-07-20 04:18:00,59.7,57.0,29.86,WSW,242,2.0,3.0,92,0.00,,,0.00,weatherlink.com 1.10,2013-07-20 09:18:00,
2013-07-20 04:33:00,59.5,58.0,29.85,SW,234,0.0,0.0,93,0.00,,,0.00,weatherlink.com 1.10,2013-07-20 09:33:00,
2013-07-20 04:48:00,58.9,57.0,29.85,SW,233,0.0,1.0,93,0.00,,,0.00,weatherlink.com 1.10,2013-07-20 09:48:00,
2013-07-20 05:03:00,58.4,57.0,29.86,SW,233,0.0,0.0,94,0.00,,,0.00,weatherlink.com 1.10,2013-07-20 10:03:00,
2013-07-20 05:18:00,58.0,57.0,29.86,SW,233,0.0,0.0,95,0.00,,,0.00,weatherlink.com 1.10,2013-07-20 10:18:00,
2013-07-20 05:33:00,58.3,57.0,29.86,SW,233,0.0,0.0,95,0.00,,,0.00,weatherlink.com 1.10,2013-07-20 10:33:00,
2013-07-20 05:48:00,58.4,57.0,29.86,WSW,246,0.0,1.0,94,0.00,,,0.00,weatherlink.com 1.10,2013-07-20 10:48:00,
2013-07-20 06:03:00,58.5,57.0,29.87,WSW,246,0.0,0.0,93,0.00,,,0.00,weatherlink.com 1.10,2013-07-20 11:03:00,
2013-07-20 06:18:00,58.8,57.0,29.86,WSW,250,0.0,1.0,94,0.00,,,0.00,weatherlink.com 1.10,2013-07-20 11:18:00,
2013-07-20 06:33:00,58.6,57.0,29.87,WSW,250,0.0,0.0,94,0.00,,,0.00,weatherlink.com 1.10,2013-07-20 11:33:00,
2013-07-20 06:48:00,58.6,57.0,29.89,WSW,241,1.0,3.0,95,0.00,,,0.00,weatherlink.com 1.10,2013-07-20 11:48:00,
2013-07-20 07:03:00,60.7,58.0,29.91,WNW,284,2.0,3.0,91,0.00,,,0.00,weatherlink.com 1.10,2013-07-20 12:03:00,
2013-07-20 07:18:00,64.2,60.0,29.91,West,280,2.0,9.0,87,0.00,,,0.00,weatherlink.com 1.10,2013-07-20 12:18:00,
2013-07-20 07:33:00,64.3,60.0,29.91,West,274,2.0,4.0,87,0.00,,,0.00,weatherlink.com 1.10,2013-07-20 12:33:00,
2013-07-20 07:48:00,64.9,60.0,29.93,NNW,335,3.0,7.0,85,0.00,,,0.00,weatherlink.com 1.10,2013-07-20 12:48:00,
2013-07-20 08:03:00,66.2,61.0,29.91,West,278,7.0,12.0,83,0.00,,,0.00,weatherlink.com 1.10,2013-07-20 13:03:00,
2013-07-20 08:18:00,67.6,62.0,29.91,WNW,303,7.0,11.0,81,0.00,,,0.00,weatherlink.com 1.10,2013-07-20 13:18:00,
2013-07-20 08:33:00,68.9,62.0,29.91,NW,324,7.0,10.0,78,0.00,,,0.00,weatherlink.com 1.10,2013-07-20 13:33:00,
2013-07-20 08:48:00,70.1,62.0,29.91,WNW,299,4.0,8.0,76,0.00,,,0.00,weatherlink.com 1.10,2013-07-20 13:48:00,
2013-07-20 09:03:00,69.9,61.0,29.91,WNW,297,3.0,9.0,74,0.00,,,0.00,weatherlink.com 1.10,2013-07-20 14:03:00,
2013-07-20 09:18:00,69.9,61.0,29.91,West,267,6.0,7.0,74,0.00,,,0.00,weatherlink.com 1.10,2013-07-20 14:18:00,
2013-07-20 09:33:00,69.7,61.0,29.90,WNW,302,6.0,8.0,75,0.00,,,0.00,weatherlink.com 1.10,2013-07-20 14:33:00,
2013-07-20 09:49:00,70.7,62.0,29.88,NW,309,1.0,4.0,74,0.00,,,0.00,weatherlink.com 1.10,2013-07-20 14:49:00,
2013-07-20 10:04:00,72.3,61.0,29.87,NNW,335,3.0,8.0,68,0.00,,,0.00,weatherlink.com 1.10,2013-07-20 15:04:00,
2013-07-20 10:19:00,73.3,61.0,29.89,NNW,328,4.0,7.0,66,0.00,,,0.00,weatherlink.com 1.10,2013-07-20 15:19:00,
2013-07-20 10:34:00,72.9,62.0,29.89,NNW,345,5.0,7.0,69,0.00,,,0.00,weatherlink.com 1.10,2013-07-20 15:34:00,
2013-07-20 10:49:00,72.2,62.0,29.89,NE,56,5.0,7.0,70,0.00,,,0.00,weatherlink.com 1.10,2013-07-20 15:49:00,
2013-07-20 11:01:00,72.6,62.3,29.90,North,11,8.0,8.0,70,0.00,,,0.00,Wunderground v.1.15,2013-07-20 16:01:00,
2013-07-20 11:20:00,72.5,62.0,29.90,ENE,77,1.0,4.0,70,0.00,,,0.00,weatherlink.com 1.10,2013-07-20 16:20:00,
2013-07-20 11:34:00,74.4,63.0,29.90,NNE,30,2.0,6.0,67,0.00,,,0.00,weatherlink.com 1.10,2013-07-20 16:34:00,
2013-07-20 11:49:00,76.3,64.0,29.90,West,263,1.0,4.0,65,0.00,,,0.00,weatherlink.com 1.10,2013-07-20 16:49:00,
2013-07-20 12:04:00,78.0,64.0,29.90,ESE,105,4.0,4.0,62,0.00,,,0.00,weatherlink.com 1.10,2013-07-20 17:04:00,
2013-07-20 12:19:00,77.9,62.0,29.91,East,85,2.0,5.0,59,0.00,,,0.00,weatherlink.com 1.10,2013-07-20 17:19:00,
2013-07-20 12:34:00,78.0,62.0,29.90,ESE,117,2.0,4.0,59,0.00,,,0.00,weatherlink.com 1.10,2013-07-20 17:34:00,
2013-07-20 12:49:00,79.1,63.0,29.90,NNE,33,4.0,6.0,59,0.00,,,0.00,weatherlink.com 1.10,2013-07-20 17:49:00,
2013-07-20 13:04:00,78.6,63.0,29.89,NE,56,5.0,9.0,59,0.00,,,0.00,weatherlink.com 1.10,2013-07-20 18:04:00,
2013-07-20 13:19:00,77.2,63.0,29.89,NE,49,7.0,11.0,61,0.00,,,0.00,weatherlink.com 1.10,2013-07-20 18:19:00,
2013-07-20 13:34:00,77.6,63.0,29.89,NE,38,3.0,8.0,60,0.00,,,0.00,weatherlink.com 1.10,2013-07-20 18:34:00,
2013-07-20 14:04:00,79.5,61.0,29.87,East,83,3.0,10.0,54,0.00,,,0.00,weatherlink.com 1.10,2013-07-20 19:04:00,
2013-07-20 14:19:00,79.7,62.0,29.87,ENE,63,7.0,11.0,54,0.00,,,0.00,weatherlink.com 1.10,2013-07-20 19:19:00,
2013-07-20 14:34:00,80.6,62.0,29.88,East,99,8.0,13.0,53,0.00,,,0.00,weatherlink.com 1.10,2013-07-20 19:34:00,
2013-07-20 15:04:00,80.9,62.0,29.88,NE,47,6.0,7.0,52,0.00,,,0.00,weatherlink.com 1.10,2013-07-20 20:04:00,
2013-07-20 15:49:00,79.3,64.0,29.88,ENE,60,5.0,6.0,59,0.00,,,0.00,weatherlink.com 1.10,2013-07-20 20:49:00,
2013-07-20 16:04:00,80.6,63.0,29.87,SE,137,3.0,8.0,56,0.00,,,0.00,weatherlink.com 1.10,2013-07-20 21:04:00,
2013-07-20 16:19:00,79.9,63.0,29.86,SE,130,4.0,9.0,56,0.00,,,0.00,weatherlink.com 1.10,2013-07-20 21:19:00,
2013-07-20 16:34:00,81.0,63.0,29.86,WSW,250,5.0,8.0,54,0.00,,,0.00,weatherlink.com 1.10,2013-07-20 21:34:00,
2013-07-20 16:50:00,81.4,64.0,29.86,ESE,107,2.0,7.0,55,0.00,,,0.00,weatherlink.com 1.10,2013-07-20 21:50:00,
2013-07-20 17:05:00,81.9,65.0,29.86,SE,138,8.0,9.0,56,0.00,,,0.00,weatherlink.com 1.10,2013-07-20 22:05:00,
2013-07-20 18:05:00,81.3,64.0,29.84,SSW,198,3.0,4.0,56,0.00,,,0.00,weatherlink.com 1.10,2013-07-20 23:05:00,
2013-07-20 18:20:00,80.8,64.0,29.83,SW,228,4.0,6.0,56,0.00,,,0.00,weatherlink.com 1.10,2013-07-20 23:20:00,
2013-07-20 18:35:00,79.8,62.0,29.83,SSW,204,3.0,5.0,55,0.00,,,0.00,weatherlink.com 1.10,2013-07-20 23:35:00,
2013-07-20 18:50:00,80.0,62.0,29.84,SSW,198,2.0,6.0,55,0.00,,,0.00,weatherlink.com 1.10,2013-07-20 23:50:00,
2013-07-20 19:05:00,80.2,63.0,29.84,WSW,237,5.0,6.0,55,0.00,,,0.00,weatherlink.com 1.10,2013-07-21 00:05:00,
2013-07-20 19:20:00,79.0,62.0,29.84,WSW,248,4.0,6.0,57,0.00,,,0.00,weatherlink.com 1.10,2013-07-21 00:20:00,
2013-07-20 19:35:00,77.6,63.0,29.84,WSW,246,5.0,5.0,61,0.00,,,0.00,weatherlink.com 1.10,2013-07-21 00:35:00,
2013-07-20 19:50:00,76.1,64.0,29.84,West,270,2.0,3.0,67,0.00,,,0.00,weatherlink.com 1.10,2013-07-21 00:50:00,
2013-07-20 20:05:00,75.0,64.0,29.83,SSE,151,2.0,4.0,69,0.00,,,0.00,weatherlink.com 1.10,2013-07-21 01:05:00,
2013-07-20 20:20:00,75.5,64.0,29.84,West,267,0.0,2.0,67,0.00,,,0.00,weatherlink.com 1.10,2013-07-21 01:20:00,
2013-07-20 20:35:00,74.6,64.0,29.83,WNW,290,0.0,1.0,70,0.00,,,0.00,weatherlink.com 1.10,2013-07-21 01:35:00,
2013-07-20 20:50:00,74.5,65.0,29.83,SW,226,1.0,1.0,72,0.00,,,0.00,weatherlink.com 1.10,2013-07-21 01:50:00,
2013-07-20 21:20:00,72.0,65.0,29.84,SW,225,0.0,0.0,78,0.00,,,0.00,weatherlink.com 1.10,2013-07-21 02:20:00,
2013-07-20 21:50:00,70.4,64.0,29.86,SW,226,0.0,1.0,81,0.00,,,0.00,weatherlink.com 1.10,2013-07-21 02:50:00,
2013-07-20 22:20:00,69.0,65.0,29.87,SW,226,0.0,0.0,88,0.00,,,0.00,weatherlink.com 1.10,2013-07-21 03:20:00,
2013-07-20 22:35:00,68.4,65.0,29.86,SW,226,1.0,1.0,89,0.00,,,0.00,weatherlink.com 1.10,2013-07-21 03:35:00,
2013-07-20 22:50:00,68.2,65.0,29.87,SW,226,0.0,1.0,88,0.00,,,0.00,weatherlink.com 1.10,2013-07-21 03:50:00,
2013-07-20 23:05:00,67.5,65.0,29.86,SW,226,0.0,0.0,90,0.00,,,0.00,weatherlink.com 1.10,2013-07-21 04:05:00,
2013-07-20 23:21:00,66.9,64.0,29.87,SW,226,0.0,0.0,91,0.00,,,0.00,weatherlink.com 1.10,2013-07-21 04:21:00,
2013-07-20 23:35:00,66.9,64.0,29.86,SW,226,0.0,1.0,91,0.00,,,0.00,weatherlink.com 1.10,2013-07-21 04:35:00,
2013-07-20 23:50:00,66.2,64.0,29.87,SW,226,0.0,0.0,93,0.00,,,0.00,weatherlink.com 1.10,2013-07-21 04:50:00,